Carnival Valor — H3VR — position and weather

sailwx.info

Track history (hours):
 
Tides and Currents Weather Stations Pressure Air Temp Water Temp Dewpoint Dewpoint Depression Visibility Wind Speed Wind Dir Waves Ship Positions

Carnival Valor

Last reported at 2014-Sep-13 12:31 UTC. Time now 2014-Sep-19 13:51 UTC.
Position N 18°01' W 063°03'.

Type: Ship. MMSI: 354298000.

Date/timePositionNaut miles runAvg speedWind from/ knotsBaromVisibWave heightAir tempDewpointWater temp
2014-Sep-13 12:31N 18°01' W 063°03'0 0.0
2014-Sep-13 11:31N 18°01' W 063°03'29 6.9
2014-Sep-13 07:24N 18°07' W 063°32'7 8.0
2014-Sep-13 06:33N 18°07' W 063°39'8 8.4
2014-Sep-13 05:33N 17°59' W 063°38'12 9.7
2014-Sep-13 04:18N 17°59' W 063°25'1010.0
2014-Sep-13 03:18N 17°51' W 063°18'1810.0
2014-Sep-13 01:29N 17°36' W 063°08'  
2014-Sep-09 01:31N 17°53' W 064°24'1010.3
2014-Sep-09 00:33N 17°58' W 064°32'  
2014-Sep-06 18:21N 18°01' W 063°03'0 0.0
2014-Sep-06 17:33N 18°01' W 063°03'11 1.3
2014-Sep-06 09:32N 18°01' W 063°14'11 9.9
2014-Sep-06 08:25N 18°05' W 063°25'910.0
2014-Sep-06 07:28N 18°08' W 063°34'7 7.1
2014-Sep-06 06:33N 18°04' W 063°40'9 8.0
2014-Sep-06 05:27N 17°59' W 063°32'9 9.2
2014-Sep-06 04:31N 17°58' W 063°23'10 9.7
2014-Sep-06 03:32N 17°51' W 063°17'10 9.4
2014-Sep-06 02:30N 17°43' W 063°11'11 9.3
2014-Sep-06 01:20N 17°33' W 063°06'  
Track history (hours):
 
Tides and Currents Weather Stations Pressure Air Temp Water Temp Dewpoint Dewpoint Depression Visibility Wind Speed Wind Dir Waves Ship Positions

Carnival Valor

Last reported at 2014-Sep-13 12:31 UTC. Time now 2014-Sep-19 13:51 UTC.
Position N 18°01' W 063°03'.

Type: Ship. MMSI: 354298000.

Date/timePositionNaut miles runAvg speedWind from/ knotsBaromVisibWave heightAir tempDewpointWater temp
2014-Sep-13 12:31N 18°01' W 063°03'0 0.0
2014-Sep-13 11:31N 18°01' W 063°03'29 6.9
2014-Sep-13 07:24N 18°07' W 063°32'7 8.0
2014-Sep-13 06:33N 18°07' W 063°39'8 8.4
2014-Sep-13 05:33N 17°59' W 063°38'12 9.7
2014-Sep-13 04:18N 17°59' W 063°25'1010.0
2014-Sep-13 03:18N 17°51' W 063°18'1810.0
2014-Sep-13 01:29N 17°36' W 063°08'  
2014-Sep-09 01:31N 17°53' W 064°24'1010.3
2014-Sep-09 00:33N 17°58' W 064°32'  
2014-Sep-06 18:21N 18°01' W 063°03'0 0.0
2014-Sep-06 17:33N 18°01' W 063°03'11 1.3
2014-Sep-06 09:32N 18°01' W 063°14'11 9.9
2014-Sep-06 08:25N 18°05' W 063°25'910.0
2014-Sep-06 07:28N 18°08' W 063°34'7 7.1
2014-Sep-06 06:33N 18°04' W 063°40'9 8.0
2014-Sep-06 05:27N 17°59' W 063°32'9 9.2
2014-Sep-06 04:31N 17°58' W 063°23'10 9.7
2014-Sep-06 03:32N 17°51' W 063°17'10 9.4
2014-Sep-06 02:30N 17°43' W 063°11'11 9.3
2014-Sep-06 01:20N 17°33' W 063°06'  

Dump ship's entire track history